sensor_id;sensor_type;location;lat;lon;timestamp;temperature;humidity
16635;DHT22;8431;52.458;9.998;2023-08-31T00:03:11;12.50;99.90
16635;DHT22;8431;52.458;9.998;2023-08-31T00:06:28;12.30;99.90
16635;DHT22;8431;52.458;9.998;2023-08-31T00:19:31;12.10;99.90
16635;DHT22;8431;52.458;9.998;2023-08-31T00:21:57;12.10;99.90
16635;DHT22;8431;52.458;9.998;2023-08-31T00:24:24;12.10;99.90
16635;DHT22;8431;52.458;9.998;2023-08-31T00:26:53;12.10;99.90
16635;DHT22;8431;52.458;9.998;2023-08-31T00:29:20;12.00;99.90
16635;DHT22;8431;52.458;9.998;2023-08-31T00:31:48;12.00;99.90
16635;DHT22;8431;52.458;9.998;2023-08-31T00:34:16;12.00;99.90
16635;DHT22;8431;52.458;9.998;2023-08-31T00:36:45;12.00;99.90
16635;DHT22;8431;52.458;9.998;2023-08-31T00:39:12;12.00;99.90
16635;DHT22;8431;52.458;9.998;2023-08-31T00:41:39;12.00;99.90
16635;DHT22;8431;52.458;9.998;2023-08-31T00:44:06;11.90;99.90
16635;DHT22;8431;52.458;9.998;2023-08-31T00:46:34;11.90;99.90
16635;DHT22;8431;52.458;9.998;2023-08-31T00:49:01;11.80;99.90
16635;DHT22;8431;52.458;9.998;2023-08-31T00:51:29;11.80;99.90
16635;DHT22;8431;52.458;9.998;2023-08-31T00:53:57;11.90;99.90
16635;DHT22;8431;52.458;9.998;2023-08-31T00:56:25;11.80;99.90
16635;DHT22;8431;52.458;9.998;2023-08-31T00:58:52;11.70;99.90
16635;DHT22;8431;52.458;9.998;2023-08-31T01:01:25;11.70;99.90
16635;DHT22;8431;52.458;9.998;2023-08-31T01:03:58;11.70;99.90
16635;DHT22;8431;52.458;9.998;2023-08-31T01:06:36;11.70;99.90
16635;DHT22;8431;52.458;9.998;2023-08-31T01:09:13;11.70;99.90
16635;DHT22;8431;52.458;9.998;2023-08-31T01:11:49;11.60;99.90
16635;DHT22;8431;52.458;9.998;2023-08-31T01:14:23;11.60;99.90
16635;DHT22;8431;52.458;9.998;2023-08-31T01:16:54;11.60;99.90
16635;DHT22;8431;52.458;9.998;2023-08-31T01:19:34;11.60;99.90
16635;DHT22;8431;52.458;9.998;2023-08-31T01:22:11;11.50;99.90
16635;DHT22;8431;52.458;9.998;2023-08-31T01:24:41;11.60;99.90
16635;DHT22;8431;52.458;9.998;2023-08-31T01:27:08;11.50;99.90
16635;DHT22;8431;52.458;9.998;2023-08-31T01:29:35;11.50;99.90
16635;DHT22;8431;52.458;9.998;2023-08-31T01:32:05;11.50;99.90
16635;DHT22;8431;52.458;9.998;2023-08-31T01:34:32;11.40;99.90
16635;DHT22;8431;52.458;9.998;2023-08-31T01:37:03;11.30;99.90
16635;DHT22;8431;52.458;9.998;2023-08-31T01:39:35;11.30;99.90
16635;DHT22;8431;52.458;9.998;2023-08-31T01:42:06;11.30;99.90
16635;DHT22;8431;52.458;9.998;2023-08-31T01:44:35;11.20;99.90
16635;DHT22;8431;52.458;9.998;2023-08-31T01:47:04;11.10;99.90
16635;DHT22;8431;52.458;9.998;2023-08-31T01:49:36;11.10;99.90
16635;DHT22;8431;52.458;9.998;2023-08-31T01:52:03;11.00;99.90
16635;DHT22;8431;52.458;9.998;2023-08-31T01:54:31;10.90;99.90
16635;DHT22;8431;52.458;9.998;2023-08-31T01:56:57;10.90;99.90
16635;DHT22;8431;52.458;9.998;2023-08-31T01:59:26;10.90;99.90
16635;DHT22;8431;52.458;9.998;2023-08-31T02:01:53;10.90;99.90
16635;DHT22;8431;52.458;9.998;2023-08-31T02:04:20;10.90;99.90
16635;DHT22;8431;52.458;9.998;2023-08-31T02:06:47;10.80;99.90
16635;DHT22;8431;52.458;9.998;2023-08-31T02:09:14;10.80;99.90
16635;DHT22;8431;52.458;9.998;2023-08-31T02:11:41;10.80;99.90
16635;DHT22;8431;52.458;9.998;2023-08-31T02:14:08;10.80;99.90
16635;DHT22;8431;52.458;9.998;2023-08-31T02:16:36;10.80;99.90
16635;DHT22;8431;52.458;9.998;2023-08-31T02:19:03;10.90;99.90
16635;DHT22;8431;52.458;9.998;2023-08-31T02:21:30;10.80;99.90
16635;DHT22;8431;52.458;9.998;2023-08-31T02:23:57;10.70;99.90
16635;DHT22;8431;52.458;9.998;2023-08-31T02:26:24;10.70;99.90
16635;DHT22;8431;52.458;9.998;2023-08-31T02:28:51;10.70;99.90
16635;DHT22;8431;52.458;9.998;2023-08-31T02:31:18;10.70;99.90
16635;DHT22;8431;52.458;9.998;2023-08-31T02:33:47;10.70;99.90
16635;DHT22;8431;52.458;9.998;2023-08-31T02:36:14;10.60;99.90
16635;DHT22;8431;52.458;9.998;2023-08-31T02:38:41;10.70;99.90
16635;DHT22;8431;52.458;9.998;2023-08-31T02:41:08;10.70;99.90
16635;DHT22;8431;52.458;9.998;2023-08-31T02:43:35;10.70;99.90
16635;DHT22;8431;52.458;9.998;2023-08-31T02:46:02;10.70;99.90
16635;DHT22;8431;52.458;9.998;2023-08-31T02:48:30;10.70;99.90
16635;DHT22;8431;52.458;9.998;2023-08-31T02:50:58;10.70;99.90
16635;DHT22;8431;52.458;9.998;2023-08-31T02:53:26;10.60;99.90
16635;DHT22;8431;52.458;9.998;2023-08-31T02:55:53;10.60;99.90
16635;DHT22;8431;52.458;9.998;2023-08-31T02:58:20;10.60;99.90
16635;DHT22;8431;52.458;9.998;2023-08-31T03:00:47;10.70;99.90
16635;DHT22;8431;52.458;9.998;2023-08-31T03:03:14;10.60;99.90
16635;DHT22;8431;52.458;9.998;2023-08-31T03:05:41;10.70;99.90
16635;DHT22;8431;52.458;9.998;2023-08-31T03:08:09;10.70;99.90
16635;DHT22;8431;52.458;9.998;2023-08-31T03:10:37;10.70;99.90
16635;DHT22;8431;52.458;9.998;2023-08-31T03:13:05;10.80;99.90
16635;DHT22;8431;52.458;9.998;2023-08-31T03:15:32;10.80;99.90
16635;DHT22;8431;52.458;9.998;2023-08-31T03:18:00;10.80;99.90
16635;DHT22;8431;52.458;9.998;2023-08-31T03:20:27;10.80;99.90
16635;DHT22;8431;52.458;9.998;2023-08-31T03:22:54;10.90;99.90
16635;DHT22;8431;52.458;9.998;2023-08-31T03:25:22;10.90;99.90
16635;DHT22;8431;52.458;9.998;2023-08-31T03:27:49;10.90;99.90
16635;DHT22;8431;52.458;9.998;2023-08-31T03:30:16;10.80;99.90
16635;DHT22;8431;52.458;9.998;2023-08-31T03:32:43;10.80;99.90
16635;DHT22;8431;52.458;9.998;2023-08-31T03:35:10;10.80;99.90
16635;DHT22;8431;52.458;9.998;2023-08-31T03:37:37;10.80;99.90
16635;DHT22;8431;52.458;9.998;2023-08-31T03:40:05;10.80;99.90
16635;DHT22;8431;52.458;9.998;2023-08-31T03:42:34;10.80;99.90
16635;DHT22;8431;52.458;9.998;2023-08-31T03:45:01;10.70;99.90
16635;DHT22;8431;52.458;9.998;2023-08-31T03:47:29;10.70;99.90
16635;DHT22;8431;52.458;9.998;2023-08-31T03:49:56;10.70;99.90
16635;DHT22;8431;52.458;9.998;2023-08-31T03:52:23;10.60;99.90
16635;DHT22;8431;52.458;9.998;2023-08-31T03:54:52;10.70;99.90
16635;DHT22;8431;52.458;9.998;2023-08-31T03:57:19;10.70;99.90
16635;DHT22;8431;52.458;9.998;2023-08-31T03:59:47;10.70;99.90
16635;DHT22;8431;52.458;9.998;2023-08-31T04:02:14;10.60;99.90
16635;DHT22;8431;52.458;9.998;2023-08-31T04:04:41;10.60;99.90
16635;DHT22;8431;52.458;9.998;2023-08-31T04:07:08;10.50;99.90
16635;DHT22;8431;52.458;9.998;2023-08-31T04:09:35;10.50;99.90
16635;DHT22;8431;52.458;9.998;2023-08-31T04:12:02;10.50;99.90
16635;DHT22;8431;52.458;9.998;2023-08-31T04:14:29;10.60;99.90
16635;DHT22;8431;52.458;9.998;2023-08-31T04:16:57;10.60;99.90
16635;DHT22;8431;52.458;9.998;2023-08-31T04:19:24;10.60;99.90
16635;DHT22;8431;52.458;9.998;2023-08-31T04:21:51;10.50;99.90
16635;DHT22;8431;52.458;9.998;2023-08-31T04:24:18;10.50;99.90
16635;DHT22;8431;52.458;9.998;2023-08-31T04:26:45;10.50;99.90
16635;DHT22;8431;52.458;9.998;2023-08-31T04:29:13;10.50;99.90
16635;DHT22;8431;52.458;9.998;2023-08-31T04:31:40;10.50;99.90
16635;DHT22;8431;52.458;9.998;2023-08-31T04:34:09;10.60;99.90
16635;DHT22;8431;52.458;9.998;2023-08-31T04:36:35;10.70;99.90
16635;DHT22;8431;52.458;9.998;2023-08-31T04:39:02;10.80;99.90
16635;DHT22;8431;52.458;9.998;2023-08-31T04:41:30;10.90;99.90
16635;DHT22;8431;52.458;9.998;2023-08-31T04:43:57;11.00;99.90
16635;DHT22;8431;52.458;9.998;2023-08-31T04:46:24;11.00;99.90
16635;DHT22;8431;52.458;9.998;2023-08-31T04:48:51;11.00;99.90
16635;DHT22;8431;52.458;9.998;2023-08-31T04:51:33;11.00;99.90
16635;DHT22;8431;52.458;9.998;2023-08-31T04:54:02;11.00;99.90
16635;DHT22;8431;52.458;9.998;2023-08-31T04:56:30;11.00;99.90
16635;DHT22;8431;52.458;9.998;2023-08-31T04:58:58;11.10;99.90
16635;DHT22;8431;52.458;9.998;2023-08-31T05:01:26;11.10;99.90
16635;DHT22;8431;52.458;9.998;2023-08-31T05:03:53;11.20;99.90
16635;DHT22;8431;52.458;9.998;2023-08-31T05:06:20;11.30;99.90
16635;DHT22;8431;52.458;9.998;2023-08-31T05:08:48;11.30;99.90
16635;DHT22;8431;52.458;9.998;2023-08-31T05:11:15;11.30;99.90
16635;DHT22;8431;52.458;9.998;2023-08-31T05:13:42;11.40;99.90
16635;DHT22;8431;52.458;9.998;2023-08-31T05:16:09;11.40;99.90
16635;DHT22;8431;52.458;9.998;2023-08-31T05:18:37;11.40;99.90
16635;DHT22;8431;52.458;9.998;2023-08-31T05:21:05;11.40;99.90
16635;DHT22;8431;52.458;9.998;2023-08-31T05:23:32;11.40;99.90
16635;DHT22;8431;52.458;9.998;2023-08-31T05:26:01;11.40;99.90
16635;DHT22;8431;52.458;9.998;2023-08-31T05:28:28;11.50;99.90
16635;DHT22;8431;52.458;9.998;2023-08-31T05:30:56;11.50;99.90
16635;DHT22;8431;52.458;9.998;2023-08-31T05:33:23;11.40;99.90
16635;DHT22;8431;52.458;9.998;2023-08-31T05:35:53;11.30;99.90
16635;DHT22;8431;52.458;9.998;2023-08-31T05:38:24;11.20;99.90
16635;DHT22;8431;52.458;9.998;2023-08-31T05:41:07;11.20;99.90
16635;DHT22;8431;52.458;9.998;2023-08-31T05:43:35;11.20;99.90
16635;DHT22;8431;52.458;9.998;2023-08-31T05:46:05;11.30;99.90
16635;DHT22;8431;52.458;9.998;2023-08-31T05:48:33;11.40;99.90
16635;DHT22;8431;52.458;9.998;2023-08-31T05:51:00;11.50;99.90
16635;DHT22;8431;52.458;9.998;2023-08-31T05:53:27;11.60;99.90
16635;DHT22;8431;52.458;9.998;2023-08-31T05:55:54;11.70;99.90
16635;DHT22;8431;52.458;9.998;2023-08-31T05:58:30;11.70;99.90
16635;DHT22;8431;52.458;9.998;2023-08-31T06:00:57;11.70;99.90
16635;DHT22;8431;52.458;9.998;2023-08-31T06:03:25;11.70;99.90
16635;DHT22;8431;52.458;9.998;2023-08-31T06:05:52;11.70;99.90
16635;DHT22;8431;52.458;9.998;2023-08-31T06:08:19;11.70;99.90
16635;DHT22;8431;52.458;9.998;2023-08-31T06:10:46;11.80;99.90
16635;DHT22;8431;52.458;9.998;2023-08-31T06:13:12;11.80;99.90
16635;DHT22;8431;52.458;9.998;2023-08-31T06:15:41;11.90;99.90
16635;DHT22;8431;52.458;9.998;2023-08-31T06:18:07;11.90;99.90
16635;DHT22;8431;52.458;9.998;2023-08-31T06:20:34;11.90;99.90
16635;DHT22;8431;52.458;9.998;2023-08-31T06:23:02;11.90;99.90
16635;DHT22;8431;52.458;9.998;2023-08-31T06:25:29;11.90;99.90
16635;DHT22;8431;52.458;9.998;2023-08-31T06:27:56;12.00;99.90
16635;DHT22;8431;52.458;9.998;2023-08-31T06:30:23;12.00;99.90
16635;DHT22;8431;52.458;9.998;2023-08-31T06:32:52;12.10;99.90
16635;DHT22;8431;52.458;9.998;2023-08-31T06:35:20;12.00;99.90
16635;DHT22;8431;52.458;9.998;2023-08-31T06:37:47;12.10;99.90
16635;DHT22;8431;52.458;9.998;2023-08-31T06:40:16;12.10;99.90
16635;DHT22;8431;52.458;9.998;2023-08-31T06:42:44;12.10;99.90
16635;DHT22;8431;52.458;9.998;2023-08-31T06:45:11;12.20;99.90
16635;DHT22;8431;52.458;9.998;2023-08-31T06:47:38;12.20;99.90
16635;DHT22;8431;52.458;9.998;2023-08-31T06:50:07;12.30;99.90
16635;DHT22;8431;52.458;9.998;2023-08-31T06:52:35;12.40;99.90
16635;DHT22;8431;52.458;9.998;2023-08-31T06:55:02;12.50;99.90
16635;DHT22;8431;52.458;9.998;2023-08-31T06:57:31;12.80;99.90
16635;DHT22;8431;52.458;9.998;2023-08-31T06:59:59;13.10;99.90
16635;DHT22;8431;52.458;9.998;2023-08-31T07:02:26;13.40;99.90
16635;DHT22;8431;52.458;9.998;2023-08-31T07:04:53;13.30;99.90
16635;DHT22;8431;52.458;9.998;2023-08-31T07:07:22;13.10;99.90
16635;DHT22;8431;52.458;9.998;2023-08-31T07:09:49;13.20;99.90
16635;DHT22;8431;52.458;9.998;2023-08-31T07:12:17;12.90;99.90
16635;DHT22;8431;52.458;9.998;2023-08-31T07:14:44;12.80;99.90
16635;DHT22;8431;52.458;9.998;2023-08-31T07:17:11;12.80;99.90
16635;DHT22;8431;52.458;9.998;2023-08-31T07:19:44;12.90;99.90
16635;DHT22;8431;52.458;9.998;2023-08-31T07:22:11;13.00;99.90
16635;DHT22;8431;52.458;9.998;2023-08-31T07:24:40;13.20;99.90
16635;DHT22;8431;52.458;9.998;2023-08-31T07:27:07;13.10;99.90
16635;DHT22;8431;52.458;9.998;2023-08-31T07:29:34;13.20;99.90
16635;DHT22;8431;52.458;9.998;2023-08-31T07:32:02;13.20;99.90
16635;DHT22;8431;52.458;9.998;2023-08-31T07:34:30;13.20;99.90
16635;DHT22;8431;52.458;9.998;2023-08-31T07:37:01;13.40;99.90
16635;DHT22;8431;52.458;9.998;2023-08-31T07:39:29;13.50;99.90
16635;DHT22;8431;52.458;9.998;2023-08-31T07:41:58;13.30;99.90
16635;DHT22;8431;52.458;9.998;2023-08-31T07:44:25;13.30;99.90
16635;DHT22;8431;52.458;9.998;2023-08-31T07:46:52;13.30;99.90
16635;DHT22;8431;52.458;9.998;2023-08-31T07:49:19;13.10;99.90
16635;DHT22;8431;52.458;9.998;2023-08-31T07:51:45;13.20;99.90
16635;DHT22;8431;52.458;9.998;2023-08-31T07:54:19;13.20;99.90
16635;DHT22;8431;52.458;9.998;2023-08-31T07:56:46;13.50;99.90
16635;DHT22;8431;52.458;9.998;2023-08-31T07:59:16;13.60;99.90
16635;DHT22;8431;52.458;9.998;2023-08-31T08:01:43;13.70;99.90
16635;DHT22;8431;52.458;9.998;2023-08-31T08:04:11;13.40;99.90
16635;DHT22;8431;52.458;9.998;2023-08-31T08:06:37;13.50;99.90
16635;DHT22;8431;52.458;9.998;2023-08-31T08:09:04;13.90;99.90
16635;DHT22;8431;52.458;9.998;2023-08-31T08:11:32;13.90;99.90
16635;DHT22;8431;52.458;9.998;2023-08-31T08:13:59;13.90;99.90
16635;DHT22;8431;52.458;9.998;2023-08-31T08:16:27;13.80;99.90
16635;DHT22;8431;52.458;9.998;2023-08-31T08:18:54;14.00;99.90
16635;DHT22;8431;52.458;9.998;2023-08-31T08:21:21;14.50;99.90
16635;DHT22;8431;52.458;9.998;2023-08-31T08:23:48;14.80;99.90
16635;DHT22;8431;52.458;9.998;2023-08-31T08:26:16;14.30;99.90
16635;DHT22;8431;52.458;9.998;2023-08-31T08:28:43;14.10;99.90
16635;DHT22;8431;52.458;9.998;2023-08-31T08:31:10;14.00;99.90
16635;DHT22;8431;52.458;9.998;2023-08-31T08:33:38;13.90;99.90
16635;DHT22;8431;52.458;9.998;2023-08-31T08:36:06;13.90;99.90
16635;DHT22;8431;52.458;9.998;2023-08-31T08:38:32;13.70;99.90
16635;DHT22;8431;52.458;9.998;2023-08-31T08:41:04;13.50;99.90
16635;DHT22;8431;52.458;9.998;2023-08-31T08:43:33;13.40;99.90
16635;DHT22;8431;52.458;9.998;2023-08-31T08:46:04;13.60;99.90
16635;DHT22;8431;52.458;9.998;2023-08-31T08:48:32;13.80;99.90
16635;DHT22;8431;52.458;9.998;2023-08-31T08:51:02;14.20;99.90
16635;DHT22;8431;52.458;9.998;2023-08-31T08:53:30;14.40;99.90
16635;DHT22;8431;52.458;9.998;2023-08-31T08:55:57;14.80;99.90
16635;DHT22;8431;52.458;9.998;2023-08-31T08:58:24;14.80;99.90
16635;DHT22;8431;52.458;9.998;2023-08-31T09:00:52;14.50;99.90
16635;DHT22;8431;52.458;9.998;2023-08-31T09:03:20;14.30;99.90
16635;DHT22;8431;52.458;9.998;2023-08-31T09:05:47;14.60;99.90
16635;DHT22;8431;52.458;9.998;2023-08-31T09:08:16;14.50;99.90
16635;DHT22;8431;52.458;9.998;2023-08-31T09:10:46;14.50;99.90
16635;DHT22;8431;52.458;9.998;2023-08-31T09:13:14;14.60;99.90
16635;DHT22;8431;52.458;9.998;2023-08-31T09:15:44;14.60;99.90
16635;DHT22;8431;52.458;9.998;2023-08-31T09:18:16;14.70;99.90
16635;DHT22;8431;52.458;9.998;2023-08-31T09:20:46;15.00;99.90
16635;DHT22;8431;52.458;9.998;2023-08-31T09:23:23;15.30;99.90
16635;DHT22;8431;52.458;9.998;2023-08-31T09:25:56;15.30;99.90
16635;DHT22;8431;52.458;9.998;2023-08-31T09:28:27;15.70;99.90
16635;DHT22;8431;52.458;9.998;2023-08-31T09:31:06;15.60;99.90
16635;DHT22;8431;52.458;9.998;2023-08-31T09:33:34;15.80;99.90
16635;DHT22;8431;52.458;9.998;2023-08-31T09:36:02;15.90;99.90
16635;DHT22;8431;52.458;9.998;2023-08-31T09:38:31;16.00;99.90
16635;DHT22;8431;52.458;9.998;2023-08-31T09:41:04;15.80;99.90
16635;DHT22;8431;52.458;9.998;2023-08-31T09:43:31;15.50;99.90
16635;DHT22;8431;52.458;9.998;2023-08-31T09:45:58;15.30;99.90
16635;DHT22;8431;52.458;9.998;2023-08-31T09:48:26;15.20;99.90
16635;DHT22;8431;52.458;9.998;2023-08-31T09:50:55;15.30;99.90
16635;DHT22;8431;52.458;9.998;2023-08-31T09:53:23;15.70;99.90
16635;DHT22;8431;52.458;9.998;2023-08-31T09:55:52;15.60;99.90
16635;DHT22;8431;52.458;9.998;2023-08-31T09:58:21;15.50;99.90
16635;DHT22;8431;52.458;9.998;2023-08-31T10:00:49;15.40;99.90
16635;DHT22;8431;52.458;9.998;2023-08-31T10:03:17;15.20;99.90
16635;DHT22;8431;52.458;9.998;2023-08-31T10:05:45;14.90;99.90
16635;DHT22;8431;52.458;9.998;2023-08-31T10:08:13;14.60;99.90
16635;DHT22;8431;52.458;9.998;2023-08-31T10:10:40;14.40;99.90
16635;DHT22;8431;52.458;9.998;2023-08-31T10:13:16;14.60;99.90
16635;DHT22;8431;52.458;9.998;2023-08-31T10:15:44;14.80;99.90
16635;DHT22;8431;52.458;9.998;2023-08-31T10:18:11;14.60;99.90
16635;DHT22;8431;52.458;9.998;2023-08-31T10:20:42;14.50;99.90
16635;DHT22;8431;52.458;9.998;2023-08-31T10:23:14;14.30;99.90
16635;DHT22;8431;52.458;9.998;2023-08-31T10:26:03;14.20;99.90
16635;DHT22;8431;52.458;9.998;2023-08-31T10:28:39;14.20;99.90
16635;DHT22;8431;52.458;9.998;2023-08-31T10:31:07;14.40;99.90
16635;DHT22;8431;52.458;9.998;2023-08-31T10:33:39;14.50;99.90
16635;DHT22;8431;52.458;9.998;2023-08-31T10:36:14;14.50;99.90
16635;DHT22;8431;52.458;9.998;2023-08-31T10:38:42;14.50;99.90
16635;DHT22;8431;52.458;9.998;2023-08-31T10:41:18;14.80;99.90
16635;DHT22;8431;52.458;9.998;2023-08-31T10:43:49;14.70;99.90
16635;DHT22;8431;52.458;9.998;2023-08-31T10:46:27;14.70;99.90
16635;DHT22;8431;52.458;9.998;2023-08-31T10:48:55;14.90;99.90
16635;DHT22;8431;52.458;9.998;2023-08-31T10:51:24;15.40;99.90
16635;DHT22;8431;52.458;9.998;2023-08-31T10:53:51;15.40;99.90
16635;DHT22;8431;52.458;9.998;2023-08-31T10:56:18;15.40;99.90
16635;DHT22;8431;52.458;9.998;2023-08-31T10:58:58;15.60;99.90
16635;DHT22;8431;52.458;9.998;2023-08-31T11:01:57;15.90;99.90
16635;DHT22;8431;52.458;9.998;2023-08-31T11:04:27;16.10;99.90
16635;DHT22;8431;52.458;9.998;2023-08-31T11:07:14;16.30;99.90
16635;DHT22;8431;52.458;9.998;2023-08-31T11:10:49;16.10;99.90
16635;DHT22;8431;52.458;9.998;2023-08-31T11:13:23;16.30;99.90
16635;DHT22;8431;52.458;9.998;2023-08-31T11:23:15;16.80;99.90
16635;DHT22;8431;52.458;9.998;2023-08-31T11:25:42;16.90;99.90
16635;DHT22;8431;52.458;9.998;2023-08-31T11:28:10;17.20;99.90
16635;DHT22;8431;52.458;9.998;2023-08-31T11:30:52;17.30;99.90
16635;DHT22;8431;52.458;9.998;2023-08-31T11:36:33;17.10;99.90
16635;DHT22;8431;52.458;9.998;2023-08-31T11:39:03;17.00;99.90
16635;DHT22;8431;52.458;9.998;2023-08-31T11:41:33;17.30;99.90
16635;DHT22;8431;52.458;9.998;2023-08-31T11:44:03;17.50;99.90
16635;DHT22;8431;52.458;9.998;2023-08-31T11:46:30;17.30;99.90
16635;DHT22;8431;52.458;9.998;2023-08-31T11:48:59;17.10;99.90
16635;DHT22;8431;52.458;9.998;2023-08-31T11:51:27;17.10;99.90
16635;DHT22;8431;52.458;9.998;2023-08-31T11:54:00;17.60;99.90
16635;DHT22;8431;52.458;9.998;2023-08-31T11:56:38;17.90;99.90
16635;DHT22;8431;52.458;9.998;2023-08-31T11:59:11;17.60;99.90
16635;DHT22;8431;52.458;9.998;2023-08-31T12:01:39;17.30;99.90
16635;DHT22;8431;52.458;9.998;2023-08-31T12:04:11;17.10;99.90
16635;DHT22;8431;52.458;9.998;2023-08-31T12:06:38;17.10;99.90
16635;DHT22;8431;52.458;9.998;2023-08-31T12:09:08;17.30;99.90
16635;DHT22;8431;52.458;9.998;2023-08-31T12:11:35;17.60;99.90
16635;DHT22;8431;52.458;9.998;2023-08-31T12:14:03;17.80;99.90
16635;DHT22;8431;52.458;9.998;2023-08-31T12:16:34;17.90;99.90
16635;DHT22;8431;52.458;9.998;2023-08-31T12:19:05;18.00;99.90
16635;DHT22;8431;52.458;9.998;2023-08-31T12:21:32;18.30;99.90
16635;DHT22;8431;52.458;9.998;2023-08-31T12:23:59;18.00;99.90
16635;DHT22;8431;52.458;9.998;2023-08-31T12:26:30;18.40;99.90
16635;DHT22;8431;52.458;9.998;2023-08-31T12:28:57;18.70;99.90
16635;DHT22;8431;52.458;9.998;2023-08-31T12:31:28;18.30;99.90
16635;DHT22;8431;52.458;9.998;2023-08-31T12:34:04;18.10;99.90
16635;DHT22;8431;52.458;9.998;2023-08-31T12:36:34;18.30;99.90
16635;DHT22;8431;52.458;9.998;2023-08-31T12:39:08;18.50;99.90
16635;DHT22;8431;52.458;9.998;2023-08-31T12:41:38;18.70;99.90
16635;DHT22;8431;52.458;9.998;2023-08-31T12:44:05;18.50;99.90
16635;DHT22;8431;52.458;9.998;2023-08-31T12:46:39;18.10;99.90
16635;DHT22;8431;52.458;9.998;2023-08-31T12:49:08;17.80;99.90
16635;DHT22;8431;52.458;9.998;2023-08-31T12:51:38;17.80;99.90
16635;DHT22;8431;52.458;9.998;2023-08-31T12:54:05;17.60;99.90
16635;DHT22;8431;52.458;9.998;2023-08-31T12:56:37;17.70;99.90
16635;DHT22;8431;52.458;9.998;2023-08-31T12:59:05;17.60;99.90
16635;DHT22;8431;52.458;9.998;2023-08-31T13:01:32;17.30;99.90
16635;DHT22;8431;52.458;9.998;2023-08-31T13:04:06;17.10;99.90
16635;DHT22;8431;52.458;9.998;2023-08-31T13:06:49;17.30;99.90
16635;DHT22;8431;52.458;9.998;2023-08-31T13:09:17;17.60;99.90
16635;DHT22;8431;52.458;9.998;2023-08-31T13:11:45;17.60;99.90
16635;DHT22;8431;52.458;9.998;2023-08-31T13:14:14;17.60;99.90
16635;DHT22;8431;52.458;9.998;2023-08-31T13:16:41;17.50;99.90
16635;DHT22;8431;52.458;9.998;2023-08-31T13:19:09;17.30;99.90
16635;DHT22;8431;52.458;9.998;2023-08-31T13:21:36;17.30;99.90
16635;DHT22;8431;52.458;9.998;2023-08-31T13:24:03;17.30;99.90
16635;DHT22;8431;52.458;9.998;2023-08-31T13:26:30;17.20;99.90
16635;DHT22;8431;52.458;9.998;2023-08-31T13:28:58;17.00;99.90
16635;DHT22;8431;52.458;9.998;2023-08-31T13:31:25;16.30;99.90
16635;DHT22;8431;52.458;9.998;2023-08-31T13:33:54;15.30;99.90
16635;DHT22;8431;52.458;9.998;2023-08-31T13:36:21;14.90;99.90
16635;DHT22;8431;52.458;9.998;2023-08-31T13:38:48;14.80;99.90
16635;DHT22;8431;52.458;9.998;2023-08-31T13:41:15;14.60;99.90
16635;DHT22;8431;52.458;9.998;2023-08-31T13:43:43;14.60;99.90
16635;DHT22;8431;52.458;9.998;2023-08-31T13:46:11;14.50;99.90
16635;DHT22;8431;52.458;9.998;2023-08-31T13:48:38;14.60;99.90
16635;DHT22;8431;52.458;9.998;2023-08-31T13:51:09;14.50;99.90
16635;DHT22;8431;52.458;9.998;2023-08-31T13:53:36;14.40;99.90
16635;DHT22;8431;52.458;9.998;2023-08-31T13:56:10;14.50;99.90
16635;DHT22;8431;52.458;9.998;2023-08-31T13:58:37;14.40;99.90
16635;DHT22;8431;52.458;9.998;2023-08-31T14:01:04;14.40;99.90
16635;DHT22;8431;52.458;9.998;2023-08-31T14:03:38;14.30;99.90
16635;DHT22;8431;52.458;9.998;2023-08-31T14:06:08;14.20;99.90
16635;DHT22;8431;52.458;9.998;2023-08-31T14:08:36;13.60;99.90
16635;DHT22;8431;52.458;9.998;2023-08-31T14:11:13;13.10;99.90
16635;DHT22;8431;52.458;9.998;2023-08-31T14:13:43;11.70;99.90
16635;DHT22;8431;52.458;9.998;2023-08-31T14:16:12;11.30;99.90
16635;DHT22;8431;52.458;9.998;2023-08-31T14:18:40;11.60;99.90
16635;DHT22;8431;52.458;9.998;2023-08-31T14:21:14;11.50;99.90
16635;DHT22;8431;52.458;9.998;2023-08-31T14:23:49;11.50;99.90
16635;DHT22;8431;52.458;9.998;2023-08-31T14:26:21;11.70;99.90
16635;DHT22;8431;52.458;9.998;2023-08-31T14:28:48;11.90;99.90
16635;DHT22;8431;52.458;9.998;2023-08-31T14:31:15;12.30;99.90
16635;DHT22;8431;52.458;9.998;2023-08-31T14:33:43;12.60;99.90
16635;DHT22;8431;52.458;9.998;2023-08-31T14:36:12;12.60;99.90
16635;DHT22;8431;52.458;9.998;2023-08-31T14:38:42;12.80;99.90
16635;DHT22;8431;52.458;9.998;2023-08-31T14:41:14;12.80;99.90
16635;DHT22;8431;52.458;9.998;2023-08-31T14:43:58;12.80;99.90
16635;DHT22;8431;52.458;9.998;2023-08-31T14:46:28;12.90;99.90
16635;DHT22;8431;52.458;9.998;2023-08-31T14:48:56;13.00;99.90
16635;DHT22;8431;52.458;9.998;2023-08-31T14:51:23;13.30;99.90
16635;DHT22;8431;52.458;9.998;2023-08-31T14:53:50;13.50;99.90
16635;DHT22;8431;52.458;9.998;2023-08-31T14:56:18;13.60;99.90
16635;DHT22;8431;52.458;9.998;2023-08-31T14:58:45;13.50;99.90
16635;DHT22;8431;52.458;9.998;2023-08-31T15:01:11;13.90;99.90
16635;DHT22;8431;52.458;9.998;2023-08-31T15:03:38;14.20;99.90
16635;DHT22;8431;52.458;9.998;2023-08-31T15:06:07;14.30;99.90
16635;DHT22;8431;52.458;9.998;2023-08-31T15:08:38;14.20;99.90
16635;DHT22;8431;52.458;9.998;2023-08-31T15:11:06;14.20;99.90
16635;DHT22;8431;52.458;9.998;2023-08-31T15:13:32;14.20;99.90
16635;DHT22;8431;52.458;9.998;2023-08-31T15:16:00;14.20;99.90
16635;DHT22;8431;52.458;9.998;2023-08-31T15:18:27;14.20;99.90
16635;DHT22;8431;52.458;9.998;2023-08-31T15:20:54;14.60;99.90
16635;DHT22;8431;52.458;9.998;2023-08-31T15:23:24;14.10;99.90
16635;DHT22;8431;52.458;9.998;2023-08-31T15:25:50;14.10;99.90
16635;DHT22;8431;52.458;9.998;2023-08-31T15:28:17;14.50;99.90
16635;DHT22;8431;52.458;9.998;2023-08-31T15:30:44;14.70;99.90
16635;DHT22;8431;52.458;9.998;2023-08-31T15:33:11;14.40;99.90
16635;DHT22;8431;52.458;9.998;2023-08-31T15:35:39;14.50;99.90
16635;DHT22;8431;52.458;9.998;2023-08-31T15:38:06;14.60;99.90
16635;DHT22;8431;52.458;9.998;2023-08-31T15:40:34;14.70;99.90
16635;DHT22;8431;52.458;9.998;2023-08-31T15:43:01;14.70;99.90
16635;DHT22;8431;52.458;9.998;2023-08-31T15:45:28;14.70;99.90
16635;DHT22;8431;52.458;9.998;2023-08-31T15:47:54;14.40;99.90
16635;DHT22;8431;52.458;9.998;2023-08-31T15:50:26;14.20;99.90
16635;DHT22;8431;52.458;9.998;2023-08-31T15:52:58;14.10;99.90
16635;DHT22;8431;52.458;9.998;2023-08-31T15:55:31;13.90;99.90
16635;DHT22;8431;52.458;9.998;2023-08-31T15:57:59;13.80;99.90
16635;DHT22;8431;52.458;9.998;2023-08-31T16:00:26;13.80;99.90
16635;DHT22;8431;52.458;9.998;2023-08-31T16:02:52;13.90;99.90
16635;DHT22;8431;52.458;9.998;2023-08-31T16:05:20;13.80;99.90
16635;DHT22;8431;52.458;9.998;2023-08-31T16:07:47;13.90;99.90
16635;DHT22;8431;52.458;9.998;2023-08-31T16:10:14;14.00;99.90
16635;DHT22;8431;52.458;9.998;2023-08-31T16:12:41;14.10;99.90
16635;DHT22;8431;52.458;9.998;2023-08-31T16:15:12;14.00;99.90
16635;DHT22;8431;52.458;9.998;2023-08-31T16:17:39;13.90;99.90
16635;DHT22;8431;52.458;9.998;2023-08-31T16:20:08;13.90;99.90